Ana Sayfa
METAR-TAF:

METAR-TAF

Havaalanları :

Kansas City, Missouri, Amerika Birleşik Devletleri

Enlem: 39-17-50N, Boylam: 094-43-50W, yükseklik: 312 m

Güncel hava durumu gözlemi

Rapor saat 08:53 UTC de 35 dakika önce yapıldı.
Rüzgar güney/güneybatıdan 16 kt
Sıcaklık 1°C
Nem 55%
Basınç 1015 hPa
Görüş mesafesi: 16.1 km
Açık gökyüzü

METAR: KMCI 190853Z 21016KT 10SM CLR 01/M07 A2997 RMK AO2 SLP153 T00061072 58010

Saat: 03:28 (09:28 UTC)

Tahmin

Rapor saat 05:20 UTC de 4 saat ve 8 dakika önce yapıldı.
Ayın 19'si saat 06 UTC'den ayın 20'si saat 06 UTC'ye kadar geçerli Tahmin
Rüzgar güney/güneybatıdan 13 kt
Görüş mesafesi: 10 km
25000 ft yükseklikte parçalı çok bulutlu

TAF: KMCI 190520Z 1906/2006 21013KT P6SM BKN250

4.000'den fazla havaalanı için hava durumu gözlemleri ve tahminleri (METAR ve TAF raporları).

Kullanılabilir istasyonlar harita üzerinde sarı ve kırmızı noktalarla gösterilir.

İstasyonun adını görmek için fareyi noktanın üzerinde gezdirin.

Sonrasında hava gözlem ve tahminlerini görmek için tıklayın.

Haritayı değiştirmek için: yaklaştırmak için siyah artı işaretli yeşil düğmeye ve uzaklaştırmak için de eksi işaretli düğmeye hızla tıklayın; bitişik haritalar için yeşil okları kullanın.


METAR-TAF: